createdAt,value
2022-10-07T00:04:04.779Z,25
2022-10-07T00:09:45.742Z,14
2022-10-07T00:15:25.944Z,22
2022-10-07T00:21:05.882Z,10
2022-10-07T00:26:40.687Z,16
2022-10-07T00:32:16.335Z,10
2022-10-07T00:38:05.052Z,26
2022-10-07T00:43:40.005Z,10
2022-10-07T00:49:24.217Z,18
2022-10-07T00:55:00.045Z,10
2022-10-07T01:00:34.928Z,16
2022-10-07T01:06:10.005Z,24
2022-10-07T01:12:09.603Z,22
2022-10-07T01:17:44.493Z,12
2022-10-07T01:23:21.780Z,22
2022-10-07T01:29:00.520Z,12
2022-10-07T01:34:52.953Z,22
2022-10-07T01:40:29.144Z,14
2022-10-07T01:46:07.097Z,6
2022-10-07T01:51:42.238Z,6
2022-10-07T01:57:18.301Z,26
2022-10-07T02:03:03.105Z,20
2022-10-07T02:08:47.038Z,16
2022-10-07T02:14:42.780Z,4
2022-10-07T02:20:22.125Z,22
2022-10-07T02:25:57.655Z,18
2022-10-07T02:31:56.041Z,16
2022-10-07T02:37:34.981Z,20
2022-10-07T02:43:24.317Z,24
2022-10-07T02:49:52.264Z,20
2022-10-07T02:55:27.250Z,16
2022-10-07T03:01:02.233Z,6
2022-10-07T03:06:37.091Z,14
2022-10-07T03:12:36.413Z,22
2022-10-07T03:18:09.156Z,28
2022-10-07T03:24:14.288Z,14
2022-10-07T03:29:53.397Z,14
2022-10-07T03:36:00.718Z,12
2022-10-07T03:42:16.585Z,12
2022-10-07T03:48:06.167Z,10
2022-10-07T03:53:49.713Z,18
2022-10-07T03:59:24.942Z,24
2022-10-07T04:05:00.774Z,20
2022-10-07T04:10:57.654Z,20
2022-10-07T04:16:38.823Z,20
2022-10-07T04:22:15.535Z,26
2022-10-07T04:28:02.933Z,16
2022-10-07T04:33:52.488Z,18
2022-10-07T04:40:01.923Z,14
2022-10-07T04:45:40.209Z,22
2022-10-07T04:51:19.538Z,18
2022-10-07T04:56:57.375Z,8
2022-10-07T05:02:49.850Z,10
2022-10-07T05:09:05.469Z,24
2022-10-07T05:14:40.706Z,12
2022-10-07T05:20:20.104Z,14
2022-10-07T05:26:09.573Z,23
2022-10-07T05:31:50.173Z,18
2022-10-07T05:37:27.140Z,21
2022-10-07T05:43:09.223Z,24
2022-10-07T05:48:52.034Z,12
2022-10-07T05:54:26.822Z,18
2022-10-07T06:00:02.623Z,14
2022-10-07T06:05:37.370Z,20
2022-10-07T06:11:33.969Z,22
2022-10-07T06:17:06.784Z,20
2022-10-07T06:22:41.664Z,10
2022-10-07T06:28:17.877Z,14
2022-10-07T06:33:54.505Z,24
2022-10-07T06:39:30.310Z,32
2022-10-07T06:45:04.951Z,16
2022-10-07T06:50:40.165Z,8
2022-10-07T06:56:14.892Z,24
2022-10-07T07:01:51.948Z,30
2022-10-07T07:07:27.909Z,26
2022-10-07T07:13:03.897Z,22
2022-10-07T07:18:38.775Z,10
2022-10-07T07:24:13.805Z,20
2022-10-07T07:29:48.683Z,4
2022-10-07T07:35:23.764Z,20
2022-10-07T07:40:58.912Z,16
2022-10-07T07:46:34.054Z,16
2022-10-07T07:52:08.986Z,10
2022-10-07T07:57:47.195Z,22
2022-10-07T08:03:23.324Z,14
2022-10-07T08:08:58.458Z,30
2022-10-07T08:14:33.815Z,12
2022-10-07T08:20:10.335Z,28
2022-10-07T08:25:45.445Z,26
2022-10-07T08:31:21.512Z,24
2022-10-07T08:36:57.428Z,34
2022-10-07T08:42:32.542Z,22
2022-10-07T08:48:07.867Z,22
2022-10-07T08:53:44.066Z,12
2022-10-07T08:59:19.267Z,22
2022-10-07T09:04:54.984Z,48
2022-10-07T09:10:29.931Z,26
2022-10-07T09:16:05.355Z,18
2022-10-07T09:21:40.775Z,6
2022-10-07T09:27:15.819Z,22
2022-10-07T09:32:52.151Z,32
2022-10-07T09:38:27.650Z,31
2022-10-07T09:44:02.452Z,12
2022-10-07T09:49:37.423Z,10
2022-10-07T09:55:19.001Z,16
2022-10-07T10:00:54.224Z,18
2022-10-07T10:06:29.685Z,28
2022-10-07T10:12:27.462Z,24
2022-10-07T10:18:00.283Z,10
2022-10-07T10:23:35.870Z,24
2022-10-07T10:29:11.794Z,22
2022-10-07T10:34:55.330Z,18
2022-10-07T10:40:31.139Z,18
2022-10-07T10:46:07.151Z,12
2022-10-07T10:51:42.187Z,22
2022-10-07T10:57:17.064Z,22
2022-10-07T11:02:54.390Z,14
2022-10-07T11:08:38.842Z,14
2022-10-07T11:14:14.252Z,24
2022-10-07T11:19:50.659Z,17
2022-10-07T11:25:25.480Z,14
2022-10-07T11:31:01.341Z,6
2022-10-07T11:36:36.649Z,12
2022-10-07T11:42:11.544Z,8
2022-10-07T11:47:46.555Z,12
2022-10-07T11:53:21.581Z,20
2022-10-07T11:58:57.476Z,12
2022-10-07T12:04:33.260Z,16
2022-10-07T12:10:08.311Z,12
2022-10-07T12:15:43.251Z,4
2022-10-07T12:21:19.465Z,18
2022-10-07T12:26:56.299Z,16
2022-10-07T12:32:31.613Z,10
2022-10-07T12:38:07.684Z,14
2022-10-07T12:43:42.774Z,12
2022-10-07T12:49:17.979Z,12
2022-10-07T12:54:53.116Z,22
2022-10-07T13:00:28.255Z,16
2022-10-07T13:06:03.968Z,10
2022-10-07T13:11:39.111Z,8
2022-10-07T13:17:15.135Z,11
2022-10-07T13:22:50.056Z,12
2022-10-07T13:28:25.801Z,4
2022-10-07T13:34:01.575Z,8
2022-10-07T13:39:36.573Z,10
2022-10-07T13:45:11.521Z,8
2022-10-07T13:50:47.982Z,13
2022-10-07T13:56:22.943Z,8
2022-10-07T14:01:59.270Z,6
2022-10-07T14:07:34.707Z,12
2022-10-07T14:13:09.551Z,10
2022-10-07T14:18:44.380Z,12
2022-10-07T14:24:19.334Z,20
2022-10-07T14:29:54.962Z,12
2022-10-07T14:35:29.599Z,0
2022-10-07T14:41:06.480Z,11
2022-10-07T14:46:41.881Z,6
2022-10-07T14:52:17.138Z,6
2022-10-07T14:57:53.352Z,6
2022-10-07T15:03:28.287Z,11
2022-10-07T15:09:04.497Z,10
2022-10-07T15:14:39.286Z,6
2022-10-07T15:20:15.072Z,12
2022-10-07T15:25:50.193Z,6
2022-10-07T15:31:26.214Z,8
2022-10-07T15:37:04.031Z,6
2022-10-07T15:42:39.009Z,18
2022-10-07T15:48:14.964Z,13
2022-10-07T15:53:49.727Z,13
2022-10-07T15:59:24.757Z,2
2022-10-07T16:04:59.779Z,8
2022-10-07T16:10:34.394Z,16
2022-10-07T16:16:09.571Z,6
2022-10-07T16:21:45.393Z,8
2022-10-07T16:27:20.528Z,6
2022-10-07T16:32:56.224Z,14
2022-10-07T16:38:31.417Z,8
2022-10-07T16:44:06.105Z,14
2022-10-07T16:49:40.991Z,16
2022-10-07T16:55:16.175Z,18
2022-10-07T17:00:51.579Z,10
2022-10-07T17:06:27.410Z,15
2022-10-07T17:12:25.713Z,18
2022-10-07T17:17:58.594Z,12
2022-10-07T17:23:34.470Z,22
2022-10-07T17:29:09.296Z,4
2022-10-07T17:34:46.373Z,20
2022-10-07T17:40:21.460Z,6
2022-10-07T17:45:56.790Z,20
2022-10-07T17:51:31.671Z,8
2022-10-07T17:57:06.471Z,6
2022-10-07T18:02:41.840Z,10
2022-10-07T18:08:18.152Z,14
2022-10-07T18:14:14.725Z,20
2022-10-07T18:19:48.032Z,17
2022-10-07T18:25:22.848Z,16
2022-10-07T18:30:58.009Z,16
2022-10-07T18:36:40.444Z,12
2022-10-07T18:42:16.185Z,12
2022-10-07T18:47:56.752Z,14
2022-10-07T18:53:57.498Z,14
2022-10-07T18:59:32.790Z,8
2022-10-07T19:05:11.901Z,10
2022-10-07T19:11:08.889Z,18
2022-10-07T19:17:06.822Z,4
2022-10-07T19:22:48.411Z,15
2022-10-07T19:28:38.511Z,14
2022-10-07T19:34:22.767Z,6
2022-10-07T19:40:25.580Z,18
2022-10-07T19:46:06.253Z,18
2022-10-07T19:51:47.240Z,14
2022-10-07T19:57:47.537Z,18
2022-10-07T20:03:34.864Z,14
2022-10-07T20:09:24.712Z,18
2022-10-07T20:15:22.538Z,18
2022-10-07T20:21:26.518Z,14
2022-10-07T20:27:01.453Z,12
2022-10-07T20:32:36.349Z,8
2022-10-07T20:38:11.065Z,12
2022-10-07T20:43:48.586Z,12
2022-10-07T20:49:26.120Z,14
2022-10-07T20:55:01.380Z,14
2022-10-07T21:00:37.117Z,19
2022-10-07T21:06:14.821Z,10
2022-10-07T21:12:11.734Z,14
2022-10-07T21:17:44.465Z,18
2022-10-07T21:23:21.652Z,16
2022-10-07T21:29:17.711Z,24
2022-10-07T21:34:53.986Z,25
2022-10-07T21:40:28.811Z,6
2022-10-07T21:46:27.043Z,30
2022-10-07T21:52:16.012Z,22
2022-10-07T21:57:50.713Z,36
2022-10-07T22:03:35.831Z,34
2022-10-07T22:09:44.223Z,42
2022-10-07T22:15:19.717Z,28
2022-10-07T22:20:55.787Z,39
2022-10-07T22:27:07.026Z,50
2022-10-07T22:32:51.674Z,41
2022-10-07T22:38:26.458Z,22
2022-10-07T22:44:01.293Z,32
2022-10-07T22:49:40.462Z,30
2022-10-07T22:55:22.457Z,40
2022-10-07T23:01:01.149Z,42
2022-10-07T23:06:38.760Z,40
2022-10-07T23:12:35.829Z,38
2022-10-07T23:18:08.322Z,26
2022-10-07T23:23:43.097Z,38
2022-10-07T23:29:35.077Z,44
2022-10-07T23:35:10.807Z,48
2022-10-07T23:40:49.645Z,48
2022-10-07T23:46:25.573Z,42
2022-10-07T23:52:00.521Z,46
2022-10-07T23:57:35.279Z,42
